createdAt,value
2023-03-08T00:00:03.218Z,0.73
2023-03-08T00:02:29.609Z,0.70
2023-03-08T00:04:55.993Z,0.54
2023-03-08T00:07:22.389Z,0.75
2023-03-08T00:09:48.707Z,0.84
2023-03-08T00:12:15.087Z,0.80
2023-03-08T00:14:41.455Z,0.81
2023-03-08T00:17:07.797Z,0.61
2023-03-08T00:19:34.122Z,0.49
2023-03-08T00:22:00.531Z,0.60
2023-03-08T00:24:26.850Z,0.51
2023-03-08T00:26:53.215Z,0.61
2023-03-08T00:29:19.622Z,0.64
2023-03-08T00:31:46.018Z,0.67
2023-03-08T00:34:12.391Z,0.72
2023-03-08T00:36:38.693Z,0.51
2023-03-08T00:39:05.019Z,0.55
2023-03-08T00:41:31.442Z,0.49
2023-03-08T00:43:57.814Z,0.39
2023-03-08T00:46:24.340Z,0.57
2023-03-08T00:48:50.674Z,0.51
2023-03-08T00:51:17.055Z,0.39
2023-03-08T00:53:43.406Z,0.36
2023-03-08T00:56:09.727Z,0.50
2023-03-08T00:58:36.050Z,0.52
2023-03-08T01:01:02.451Z,0.46
2023-03-08T01:03:28.841Z,0.59
2023-03-08T01:05:55.196Z,0.57
2023-03-08T01:08:21.503Z,0.58
2023-03-08T01:10:47.869Z,0.63
2023-03-08T01:13:14.186Z,0.71
2023-03-08T01:15:40.503Z,0.66
2023-03-08T01:18:06.852Z,0.65
2023-03-08T01:20:33.157Z,0.46
2023-03-08T01:22:59.519Z,0.55
2023-03-08T01:25:25.870Z,0.50
2023-03-08T01:27:52.230Z,0.74
2023-03-08T01:30:18.536Z,0.66
2023-03-08T01:32:44.876Z,0.59
2023-03-08T01:35:11.182Z,0.51
2023-03-08T01:37:37.527Z,0.70
2023-03-08T01:40:05.088Z,0.63
2023-03-08T01:42:31.400Z,0.54
2023-03-08T01:44:57.725Z,0.68
2023-03-08T01:47:24.066Z,0.54
2023-03-08T01:49:50.395Z,0.45
2023-03-08T01:52:16.699Z,0.62
2023-03-08T01:54:43.026Z,0.82
2023-03-08T01:57:09.353Z,0.96
2023-03-08T01:59:35.709Z,0.99
2023-03-08T02:02:02.021Z,1.00
2023-03-08T02:04:28.323Z,1.06
2023-03-08T02:06:54.651Z,1.17
2023-03-08T02:09:20.991Z,1.20
2023-03-08T02:11:47.295Z,1.18
2023-03-08T02:14:13.610Z,1.19
2023-03-08T02:16:39.974Z,1.21
2023-03-08T02:19:06.391Z,1.22
2023-03-08T02:21:32.724Z,1.25
2023-03-08T02:23:59.035Z,1.27
2023-03-08T02:26:25.350Z,1.17
2023-03-08T02:28:51.763Z,1.22
2023-03-08T02:31:18.105Z,1.22
2023-03-08T02:33:44.464Z,1.22
2023-03-08T02:36:10.884Z,1.13
2023-03-08T02:38:37.252Z,1.13
2023-03-08T02:41:03.582Z,1.17
2023-03-08T02:43:29.925Z,1.30
2023-03-08T02:45:56.274Z,1.20
2023-03-08T02:48:22.626Z,1.20
2023-03-08T02:50:49.001Z,1.29
2023-03-08T02:53:15.329Z,1.31
2023-03-08T02:55:41.646Z,1.36
2023-03-08T02:58:07.972Z,1.34
2023-03-08T03:00:34.302Z,1.41
2023-03-08T03:03:00.638Z,1.36
2023-03-08T03:05:27.031Z,1.35
2023-03-08T03:07:55.439Z,1.14
2023-03-08T03:10:21.822Z,1.12
2023-03-08T03:12:48.155Z,1.13
2023-03-08T03:15:14.458Z,1.10
2023-03-08T03:17:40.838Z,1.20
2023-03-08T03:20:08.250Z,1.25
2023-03-08T03:22:34.575Z,1.35
2023-03-08T03:25:00.896Z,1.26
2023-03-08T03:27:27.236Z,1.38
2023-03-08T03:29:53.569Z,1.34
2023-03-08T03:32:19.918Z,1.34
2023-03-08T03:34:46.323Z,1.36
2023-03-08T03:37:12.681Z,1.36
2023-03-08T03:39:39.207Z,1.39
2023-03-08T03:42:05.517Z,1.42
2023-03-08T03:44:31.833Z,1.40
2023-03-08T03:46:58.135Z,1.41
2023-03-08T03:49:24.466Z,1.44
2023-03-08T03:51:50.806Z,1.51
2023-03-08T03:54:17.125Z,1.44
2023-03-08T03:56:43.451Z,1.49
2023-03-08T03:59:09.770Z,1.45
2023-03-08T04:01:36.086Z,1.38
2023-03-08T04:04:02.454Z,1.22
2023-03-08T04:06:28.867Z,1.16
2023-03-08T04:08:55.170Z,1.27
2023-03-08T04:11:21.483Z,1.25
2023-03-08T04:13:47.896Z,1.35
2023-03-08T04:16:14.424Z,1.45
2023-03-08T04:18:40.772Z,1.34
2023-03-08T04:21:07.089Z,1.31
2023-03-08T04:23:33.500Z,1.37
2023-03-08T04:25:59.831Z,1.41
2023-03-08T04:28:26.130Z,1.25
2023-03-08T04:30:52.529Z,1.31
2023-03-08T04:33:18.854Z,1.33
2023-03-08T04:35:45.225Z,1.15
2023-03-08T04:38:12.271Z,1.08
2023-03-08T04:40:58.586Z,0.92
2023-03-08T04:43:24.922Z,1.08
2023-03-08T04:45:51.248Z,1.10
2023-03-08T04:48:17.607Z,1.16
2023-03-08T04:50:43.986Z,1.17
2023-03-08T04:53:10.293Z,1.08
2023-03-08T04:55:36.614Z,1.11
2023-03-08T04:58:03.051Z,1.10
2023-03-08T05:00:29.383Z,1.13
2023-03-08T05:02:55.677Z,1.22
2023-03-08T05:05:21.994Z,1.26
2023-03-08T05:07:48.378Z,1.21
2023-03-08T05:10:14.772Z,1.01
2023-03-08T05:12:41.092Z,1.07
2023-03-08T05:15:07.432Z,1.15
2023-03-08T05:17:33.764Z,1.21
2023-03-08T05:20:00.116Z,1.24
2023-03-08T05:22:26.470Z,1.35
2023-03-08T05:24:52.822Z,1.34
2023-03-08T05:27:19.314Z,1.36
2023-03-08T05:29:45.617Z,1.42
2023-03-08T05:32:12.284Z,1.37
2023-03-08T05:34:38.638Z,1.24
2023-03-08T05:37:04.978Z,1.34
2023-03-08T05:39:31.293Z,1.30
2023-03-08T05:41:57.626Z,1.39
2023-03-08T05:44:23.941Z,1.42
2023-03-08T05:46:50.267Z,1.22
2023-03-08T05:49:16.621Z,1.04
2023-03-08T05:51:42.936Z,1.08
2023-03-08T05:54:09.239Z,1.27
2023-03-08T05:56:35.572Z,1.37
2023-03-08T05:59:01.925Z,1.39
2023-03-08T06:01:28.326Z,1.46
2023-03-08T06:03:54.665Z,1.51
2023-03-08T06:06:20.978Z,1.52
2023-03-08T06:08:47.331Z,1.59
2023-03-08T06:11:13.711Z,1.61
2023-03-08T06:13:40.215Z,1.64
2023-03-08T06:16:06.592Z,1.57
2023-03-08T06:18:33.621Z,1.57
2023-03-08T06:20:59.976Z,1.54
2023-03-08T06:23:26.425Z,1.52
2023-03-08T06:25:52.739Z,1.62
2023-03-08T06:28:19.124Z,1.67
2023-03-08T06:30:45.521Z,1.65
2023-03-08T06:33:11.878Z,1.66
2023-03-08T06:35:38.257Z,1.48
2023-03-08T06:38:04.605Z,1.45
2023-03-08T06:40:30.975Z,1.43
2023-03-08T06:42:57.342Z,1.66
2023-03-08T06:45:23.683Z,1.50
2023-03-08T06:47:49.989Z,1.68
2023-03-08T06:50:16.305Z,1.81
2023-03-08T06:52:42.637Z,1.86
2023-03-08T06:55:08.952Z,1.84
2023-03-08T06:57:35.405Z,1.79
2023-03-08T07:00:01.866Z,1.94
2023-03-08T07:02:28.182Z,2.08
2023-03-08T07:04:54.498Z,2.11
2023-03-08T07:07:20.902Z,2.27
2023-03-08T07:09:47.223Z,2.38
2023-03-08T07:12:13.564Z,2.28
2023-03-08T07:14:39.887Z,2.34
2023-03-08T07:17:06.234Z,2.35
2023-03-08T07:19:32.562Z,2.29
2023-03-08T07:21:58.924Z,2.42
2023-03-08T07:24:25.246Z,2.47
2023-03-08T07:26:51.590Z,2.48
2023-03-08T07:29:17.887Z,2.65
2023-03-08T07:31:44.348Z,2.86
2023-03-08T07:34:10.677Z,2.82
2023-03-08T07:36:38.309Z,2.80
2023-03-08T07:39:04.633Z,2.86
2023-03-08T07:41:33.066Z,2.74
2023-03-08T07:43:59.406Z,2.71
2023-03-08T07:46:25.818Z,2.56
2023-03-08T07:48:54.764Z,2.30
2023-03-08T07:51:21.551Z,2.24
2023-03-08T07:53:47.915Z,2.62
2023-03-08T07:56:14.435Z,2.65
2023-03-08T07:58:40.978Z,2.75
2023-03-08T08:01:07.292Z,2.69
2023-03-08T08:03:33.759Z,2.91
2023-03-08T08:06:00.136Z,2.76
2023-03-08T08:08:26.508Z,2.83
2023-03-08T08:10:52.819Z,2.94
2023-03-08T08:13:19.159Z,2.84
2023-03-08T08:15:45.502Z,2.62
2023-03-08T08:18:12.114Z,2.63
2023-03-08T08:20:38.494Z,2.48
2023-03-08T08:23:04.801Z,2.76
2023-03-08T08:25:31.102Z,2.64
2023-03-08T08:27:57.587Z,2.44
2023-03-08T08:30:23.920Z,2.42
2023-03-08T08:32:50.360Z,2.47
2023-03-08T08:35:16.740Z,2.70
2023-03-08T08:37:43.086Z,2.37
2023-03-08T08:40:10.656Z,2.48
2023-03-08T08:42:37.041Z,2.61
2023-03-08T08:45:03.472Z,2.90
2023-03-08T08:47:29.844Z,2.96
2023-03-08T08:49:56.169Z,2.87
2023-03-08T08:52:22.651Z,2.55
2023-03-08T08:54:49.084Z,2.66
2023-03-08T08:57:15.458Z,2.94
2023-03-08T08:59:41.803Z,2.82
2023-03-08T09:02:08.158Z,3.21
2023-03-08T09:04:34.784Z,2.97
2023-03-08T09:07:01.199Z,2.76
2023-03-08T09:09:27.617Z,2.85
2023-03-08T09:11:55.730Z,2.64
2023-03-08T09:14:22.262Z,2.53
2023-03-08T09:16:48.689Z,2.72
2023-03-08T09:19:15.674Z,2.91
2023-03-08T09:21:42.006Z,2.99
2023-03-08T09:24:10.562Z,2.57
2023-03-08T09:26:36.899Z,2.90
2023-03-08T09:29:05.515Z,2.74
2023-03-08T09:31:32.016Z,3.02
2023-03-08T09:33:58.622Z,2.67
2023-03-08T09:36:24.944Z,2.70
2023-03-08T09:38:52.293Z,2.80
2023-03-08T09:41:18.608Z,3.01
2023-03-08T09:43:44.958Z,2.96
2023-03-08T09:46:11.312Z,2.78
2023-03-08T09:48:37.646Z,3.07
2023-03-08T09:51:04.253Z,3.04
2023-03-08T09:53:30.608Z,3.08
2023-03-08T09:55:57.074Z,3.25
2023-03-08T09:58:23.481Z,3.21
2023-03-08T10:00:49.874Z,2.80
2023-03-08T10:03:16.370Z,2.81
2023-03-08T10:05:42.788Z,3.01
2023-03-08T10:08:09.127Z,3.03
2023-03-08T10:10:35.446Z,3.10
2023-03-08T10:13:01.753Z,3.13
2023-03-08T10:15:28.137Z,3.21
2023-03-08T10:17:54.542Z,3.13
2023-03-08T10:20:21.179Z,3.15
2023-03-08T10:22:47.485Z,3.37
2023-03-08T10:25:13.816Z,3.10
2023-03-08T10:27:40.175Z,2.96
2023-03-08T10:30:06.512Z,3.18
2023-03-08T10:32:33.287Z,2.96
2023-03-08T10:34:59.652Z,2.91
2023-03-08T10:37:25.980Z,3.14
2023-03-08T10:39:53.501Z,3.33
2023-03-08T10:42:21.221Z,3.18
2023-03-08T10:44:47.540Z,3.43
2023-03-08T10:47:13.895Z,3.41
2023-03-08T10:49:40.194Z,3.47
2023-03-08T10:52:06.507Z,3.63
2023-03-08T10:54:32.874Z,3.71
2023-03-08T10:56:59.260Z,3.69
2023-03-08T10:59:29.726Z,3.53
2023-03-08T11:01:56.228Z,3.48
2023-03-08T11:04:22.629Z,3.25
2023-03-08T11:06:49.001Z,3.28
2023-03-08T11:09:15.373Z,3.20
2023-03-08T11:11:41.703Z,3.34
2023-03-08T11:14:08.029Z,3.22
2023-03-08T11:16:34.420Z,3.60
2023-03-08T11:19:00.798Z,3.60
2023-03-08T11:21:27.130Z,3.56
2023-03-08T11:23:53.528Z,3.50
2023-03-08T11:26:19.901Z,3.45
2023-03-08T11:28:46.235Z,3.81
2023-03-08T11:31:13.371Z,4.03
2023-03-08T11:33:39.953Z,3.99
2023-03-08T11:36:06.443Z,3.90
2023-03-08T11:38:32.915Z,3.87
2023-03-08T11:40:59.252Z,3.92
2023-03-08T11:43:25.562Z,4.30
2023-03-08T11:45:51.926Z,4.59
2023-03-08T11:48:18.233Z,4.52
2023-03-08T11:50:44.576Z,4.45
2023-03-08T11:53:11.031Z,4.29
2023-03-08T11:55:37.375Z,4.26
2023-03-08T11:58:03.674Z,4.39
2023-03-08T12:00:30.014Z,4.35
2023-03-08T12:02:56.668Z,4.63
2023-03-08T12:05:23.495Z,4.52
2023-03-08T12:07:50.366Z,4.40
2023-03-08T12:10:16.926Z,4.67
2023-03-08T12:12:43.330Z,4.43
2023-03-08T12:15:09.901Z,4.31
2023-03-08T12:17:37.779Z,4.51
2023-03-08T12:20:08.294Z,4.35
2023-03-08T12:22:34.797Z,4.39
2023-03-08T12:25:01.138Z,4.58
2023-03-08T12:27:27.472Z,4.70
2023-03-08T12:29:53.932Z,4.77
2023-03-08T12:32:20.509Z,4.88
2023-03-08T12:34:46.996Z,4.93
2023-03-08T12:37:13.389Z,4.92
2023-03-08T12:39:39.812Z,4.72
2023-03-08T12:42:06.217Z,4.94
2023-03-08T12:44:32.595Z,4.94
2023-03-08T12:47:03.483Z,4.83
2023-03-08T12:49:30.500Z,4.72
2023-03-08T12:51:56.947Z,4.79
2023-03-08T12:54:23.324Z,4.51
2023-03-08T12:56:49.706Z,4.83
2023-03-08T12:59:16.034Z,4.99
2023-03-08T13:01:42.378Z,4.86
2023-03-08T13:04:08.835Z,4.61
2023-03-08T13:06:35.192Z,4.65
2023-03-08T13:09:01.509Z,4.81
2023-03-08T13:11:27.816Z,4.90
2023-03-08T13:13:54.198Z,4.85
2023-03-08T13:16:20.564Z,4.79
2023-03-08T13:18:46.991Z,4.84
2023-03-08T13:21:13.541Z,5.07
2023-03-08T13:23:40.065Z,5.21
2023-03-08T13:26:06.510Z,5.44
2023-03-08T13:28:46.152Z,5.38
2023-03-08T13:31:13.340Z,5.37
2023-03-08T13:33:39.830Z,5.28
2023-03-08T13:36:06.257Z,5.26
2023-03-08T13:38:32.677Z,5.16
2023-03-08T13:40:59.123Z,5.12
2023-03-08T13:43:25.500Z,5.17
2023-03-08T13:45:51.883Z,5.23
2023-03-08T13:48:19.410Z,5.39
2023-03-08T13:50:45.923Z,5.21
2023-03-08T13:53:12.574Z,5.12
2023-03-08T13:55:38.941Z,5.19
2023-03-08T13:58:05.280Z,5.05
2023-03-08T14:00:31.747Z,5.07
2023-03-08T14:02:58.410Z,4.98
2023-03-08T14:05:24.874Z,4.79
2023-03-08T14:07:51.322Z,4.69
2023-03-08T14:10:18.696Z,4.82
2023-03-08T14:12:45.080Z,4.95
2023-03-08T14:15:11.427Z,5.08
2023-03-08T14:17:37.824Z,5.02
2023-03-08T14:20:06.955Z,5.01
2023-03-08T14:22:39.683Z,4.61
2023-03-08T14:25:06.452Z,4.71
2023-03-08T14:27:33.171Z,4.72
2023-03-08T14:29:59.549Z,4.79
2023-03-08T14:32:25.939Z,4.88
2023-03-08T14:34:52.330Z,4.90
2023-03-08T14:37:18.655Z,4.70
2023-03-08T14:39:44.965Z,4.83
2023-03-08T14:42:11.280Z,4.77
2023-03-08T14:44:37.586Z,4.97
2023-03-08T14:47:03.897Z,4.87
2023-03-08T14:49:30.311Z,4.95
2023-03-08T14:51:56.695Z,4.89
2023-03-08T14:54:23.226Z,4.77
2023-03-08T14:56:49.530Z,4.76
2023-03-08T14:59:27.085Z,4.66
2023-03-08T15:01:54.359Z,4.62
2023-03-08T15:04:20.740Z,4.52
2023-03-08T15:06:47.177Z,4.47
2023-03-08T15:09:13.510Z,4.55
2023-03-08T15:11:39.859Z,4.27
2023-03-08T15:14:06.175Z,4.28
2023-03-08T15:16:32.582Z,4.25
2023-03-08T15:18:58.926Z,4.43
2023-03-08T15:21:25.247Z,4.26
2023-03-08T15:23:51.619Z,4.45
2023-03-08T15:26:20.925Z,4.44
2023-03-08T15:28:47.247Z,4.48
2023-03-08T15:31:13.653Z,4.41
2023-03-08T15:33:40.006Z,4.40
2023-03-08T15:36:06.396Z,4.45
2023-03-08T15:38:32.828Z,4.43
2023-03-08T15:40:59.223Z,4.37
2023-03-08T15:43:25.603Z,4.17
2023-03-08T15:45:52.016Z,4.21
2023-03-08T15:48:18.416Z,4.41
2023-03-08T15:50:44.781Z,4.41
2023-03-08T15:53:11.124Z,4.23
2023-03-08T15:55:40.612Z,4.35
2023-03-08T15:58:08.668Z,4.27
2023-03-08T16:00:35.690Z,4.39
2023-03-08T16:03:02.148Z,4.33
2023-03-08T16:05:29.213Z,4.46
2023-03-08T16:07:55.738Z,4.44
2023-03-08T16:10:22.061Z,4.46
2023-03-08T16:12:48.393Z,4.39
2023-03-08T16:15:14.768Z,4.39
2023-03-08T16:17:41.161Z,4.20
2023-03-08T16:20:07.484Z,4.04
2023-03-08T16:22:33.878Z,4.12
2023-03-08T16:25:00.304Z,4.25
2023-03-08T16:27:26.636Z,4.76
2023-03-08T16:29:52.962Z,5.11
2023-03-08T16:32:19.300Z,5.05
2023-03-08T16:34:50.860Z,5.46
2023-03-08T16:37:17.172Z,5.08
2023-03-08T16:39:43.477Z,5.01
2023-03-08T16:42:09.785Z,5.07
2023-03-08T16:44:36.089Z,5.42
2023-03-08T16:47:02.407Z,5.09
2023-03-08T16:49:29.280Z,5.61
2023-03-08T16:51:55.576Z,5.05
2023-03-08T16:54:21.903Z,5.24
2023-03-08T16:56:48.213Z,5.72
2023-03-08T16:59:14.631Z,5.69
2023-03-08T17:01:42.551Z,5.29
2023-03-08T17:04:08.934Z,5.18
2023-03-08T17:06:35.318Z,4.77
2023-03-08T17:09:01.866Z,4.93
2023-03-08T17:11:28.248Z,5.06
2023-03-08T17:13:55.539Z,5.03
2023-03-08T17:16:21.881Z,5.21
2023-03-08T17:18:48.211Z,5.21
2023-03-08T17:21:14.539Z,5.20
2023-03-08T17:23:40.857Z,5.26
2023-03-08T17:26:07.203Z,5.40
2023-03-08T17:28:33.514Z,5.25
2023-03-08T17:30:59.924Z,5.09
2023-03-08T17:33:26.673Z,5.18
2023-03-08T17:35:53.270Z,5.19
2023-03-08T17:38:19.634Z,4.92
2023-03-08T17:40:46.162Z,5.11
2023-03-08T17:43:15.571Z,5.00
2023-03-08T17:45:41.884Z,4.70
2023-03-08T17:48:10.319Z,5.05
2023-03-08T17:50:36.726Z,4.86
2023-03-08T17:53:03.044Z,4.42
2023-03-08T17:55:29.386Z,4.43
2023-03-08T17:57:55.709Z,4.31
2023-03-08T18:00:22.040Z,4.24
2023-03-08T18:02:48.457Z,4.13
2023-03-08T18:05:14.855Z,4.12
2023-03-08T18:07:41.918Z,3.99
2023-03-08T18:10:11.044Z,4.24
2023-03-08T18:12:37.378Z,4.65
2023-03-08T18:15:04.520Z,4.69
2023-03-08T18:17:30.897Z,4.71
2023-03-08T18:19:57.262Z,4.79
2023-03-08T18:22:23.749Z,4.99
2023-03-08T18:24:50.057Z,5.17
2023-03-08T18:27:16.458Z,4.91
2023-03-08T18:29:42.805Z,5.04
2023-03-08T18:32:11.638Z,4.79
2023-03-08T18:34:38.609Z,5.10
2023-03-08T18:37:04.941Z,5.21
2023-03-08T18:39:31.476Z,5.26
2023-03-08T18:42:00.042Z,5.19
2023-03-08T18:44:26.402Z,5.19
2023-03-08T18:46:52.800Z,5.23
2023-03-08T18:49:19.214Z,5.14
2023-03-08T18:51:45.601Z,5.16
2023-03-08T18:54:11.929Z,5.22
2023-03-08T18:56:38.264Z,5.13
2023-03-08T18:59:04.644Z,5.18
2023-03-08T19:01:31.390Z,5.18
2023-03-08T19:03:57.763Z,4.99
2023-03-08T19:06:24.092Z,4.94
2023-03-08T19:08:50.415Z,5.06
2023-03-08T19:11:16.761Z,5.04
2023-03-08T19:13:44.571Z,5.06
2023-03-08T19:16:10.931Z,5.07
2023-03-08T19:18:37.242Z,5.16
2023-03-08T19:21:03.593Z,5.04
2023-03-08T19:23:29.931Z,5.08
2023-03-08T19:26:15.159Z,5.09
2023-03-08T19:28:44.535Z,4.94
2023-03-08T19:31:10.950Z,4.85
2023-03-08T19:33:37.295Z,4.81
2023-03-08T19:36:03.651Z,4.88
2023-03-08T19:38:30.041Z,4.74
2023-03-08T19:40:56.347Z,4.81
2023-03-08T19:43:22.684Z,4.94
2023-03-08T19:45:49.081Z,4.91
2023-03-08T19:48:15.475Z,4.80
2023-03-08T19:50:41.928Z,4.80
2023-03-08T19:53:08.259Z,4.72
2023-03-08T19:55:34.588Z,4.68
2023-03-08T19:58:00.908Z,4.72
2023-03-08T20:00:28.893Z,4.55
2023-03-08T20:02:56.577Z,4.41
2023-03-08T20:05:22.920Z,4.59
2023-03-08T20:07:52.541Z,4.58
2023-03-08T20:10:18.940Z,4.61
2023-03-08T20:12:46.116Z,4.60
2023-03-08T20:15:12.433Z,4.68
2023-03-08T20:17:38.874Z,4.70
2023-03-08T20:20:06.529Z,4.68
2023-03-08T20:22:32.860Z,4.71
2023-03-08T20:24:59.189Z,4.71
2023-03-08T20:27:25.491Z,4.75
2023-03-08T20:29:51.812Z,4.54
2023-03-08T20:32:18.136Z,4.66
2023-03-08T20:34:44.454Z,4.60
2023-03-08T20:37:10.782Z,4.65
2023-03-08T20:39:38.514Z,4.68
2023-03-08T20:42:04.852Z,4.70
2023-03-08T20:44:34.560Z,4.70
2023-03-08T20:47:01.518Z,4.60
2023-03-08T20:49:28.758Z,4.54
2023-03-08T20:51:55.163Z,4.61
2023-03-08T20:54:21.495Z,4.64
2023-03-08T20:56:48.642Z,4.55
2023-03-08T20:59:16.149Z,4.52
2023-03-08T21:01:45.033Z,4.48
2023-03-08T21:04:12.141Z,4.55
2023-03-08T21:06:38.469Z,4.56
2023-03-08T21:09:04.862Z,4.45
2023-03-08T21:11:31.194Z,4.11
2023-03-08T21:13:57.724Z,4.15
2023-03-08T21:16:24.077Z,4.17
2023-03-08T21:18:50.419Z,4.35
2023-03-08T21:21:16.736Z,4.39
2023-03-08T21:23:43.055Z,4.47
2023-03-08T21:26:09.458Z,4.46
2023-03-08T21:28:35.807Z,4.51
2023-03-08T21:31:02.173Z,4.43
2023-03-08T21:33:28.512Z,4.38
2023-03-08T21:35:54.916Z,4.36
2023-03-08T21:38:22.628Z,4.49
2023-03-08T21:40:50.087Z,4.36
2023-03-08T21:43:16.423Z,4.37
2023-03-08T21:45:42.746Z,4.32
2023-03-08T21:48:09.093Z,4.39
2023-03-08T21:50:38.526Z,4.39
2023-03-08T21:53:04.852Z,4.04
2023-03-08T21:55:31.195Z,4.17
2023-03-08T21:57:57.499Z,4.22
2023-03-08T22:00:23.887Z,4.35
2023-03-08T22:02:50.479Z,4.35
2023-03-08T22:05:17.522Z,4.35
2023-03-08T22:07:43.836Z,4.37
2023-03-08T22:10:10.151Z,4.28
2023-03-08T22:12:36.518Z,4.31
2023-03-08T22:15:02.848Z,4.24
2023-03-08T22:17:29.235Z,4.22
2023-03-08T22:19:55.553Z,4.30
2023-03-08T22:22:21.871Z,4.24
2023-03-08T22:24:48.304Z,4.24
2023-03-08T22:27:14.628Z,4.32
2023-03-08T22:29:40.959Z,4.20
2023-03-08T22:32:11.570Z,4.27
2023-03-08T22:34:37.978Z,4.36
2023-03-08T22:37:06.236Z,4.31
2023-03-08T22:39:32.588Z,4.29
2023-03-08T22:41:58.964Z,4.26
2023-03-08T22:44:25.299Z,4.34
2023-03-08T22:46:51.673Z,4.25
2023-03-08T22:49:17.982Z,4.10
2023-03-08T22:51:44.512Z,4.18
2023-03-08T22:54:10.833Z,4.18
2023-03-08T22:56:37.222Z,4.23
2023-03-08T22:59:03.549Z,4.23
2023-03-08T23:01:30.147Z,4.26
2023-03-08T23:03:57.265Z,4.32
2023-03-08T23:06:23.666Z,4.36
2023-03-08T23:08:50.556Z,4.35
2023-03-08T23:11:17.128Z,4.33
2023-03-08T23:13:43.438Z,3.97
2023-03-08T23:16:09.868Z,3.94
2023-03-08T23:18:36.215Z,4.16
2023-03-08T23:21:03.508Z,4.24
2023-03-08T23:23:29.862Z,4.11
2023-03-08T23:25:56.186Z,4.26
2023-03-08T23:28:22.516Z,4.29
2023-03-08T23:30:48.849Z,4.26
2023-03-08T23:33:15.202Z,4.15
2023-03-08T23:35:41.534Z,4.24
2023-03-08T23:38:07.891Z,4.26
2023-03-08T23:40:34.252Z,4.30
2023-03-08T23:43:00.657Z,4.24
2023-03-08T23:45:27.200Z,4.28
2023-03-08T23:47:53.581Z,4.29
2023-03-08T23:50:19.904Z,4.21
2023-03-08T23:52:46.318Z,4.23
2023-03-08T23:55:12.699Z,4.25
2023-03-08T23:57:39.048Z,4.33
